sensor_id;sensor_type;location;lat;lon;timestamp;pressure;altitude;pressure_sealevel;temperature;humidity
77366;BME280;66430;50.182;11.704;2024-03-08T00:01:57;94824.51;;;2.17;38.48
77366;BME280;66430;50.182;11.704;2024-03-08T00:04:23;94824.33;;;2.03;38.69
77366;BME280;66430;50.182;11.704;2024-03-08T00:06:48;94819.34;;;2.44;38.08
77366;BME280;66430;50.182;11.704;2024-03-08T00:09:14;94819.15;;;2.18;38.42
77366;BME280;66430;50.182;11.704;2024-03-08T00:11:44;94815.66;;;2.19;38.21
77366;BME280;66430;50.182;11.704;2024-03-08T00:14:04;94817.22;;;1.78;38.52
77366;BME280;66430;50.182;11.704;2024-03-08T00:16:30;94814.84;;;2.23;37.82
77366;BME280;66430;50.182;11.704;2024-03-08T00:18:55;94812.99;;;2.12;37.94
77366;BME280;66430;50.182;11.704;2024-03-08T00:21:21;94817.22;;;2.08;38.11
77366;BME280;66430;50.182;11.704;2024-03-08T00:23:46;94816.56;;;2.39;38.01
77366;BME280;66430;50.182;11.704;2024-03-08T00:26:12;94814.66;;;2.21;38.19
77366;BME280;66430;50.182;11.704;2024-03-08T00:28:37;94812.93;;;1.85;38.68
77366;BME280;66430;50.182;11.704;2024-03-08T00:31:07;94813.83;;;1.46;39.25
77366;BME280;66430;50.182;11.704;2024-03-08T00:33:28;94812.48;;;1.56;39.13
77366;BME280;66430;50.182;11.704;2024-03-08T00:35:53;94813.65;;;1.43;38.90
77366;BME280;66430;50.182;11.704;2024-03-08T00:38:20;94814.34;;;1.43;39.14
77366;BME280;66430;50.182;11.704;2024-03-08T00:40:45;94812.20;;;1.69;38.87
77366;BME280;66430;50.182;11.704;2024-03-08T00:43:11;94809.12;;;1.42;39.16
77366;BME280;66430;50.182;11.704;2024-03-08T00:45:36;94803.68;;;1.23;39.55
77366;BME280;66430;50.182;11.704;2024-03-08T00:48:02;94800.15;;;1.36;39.22
77366;BME280;66430;50.182;11.704;2024-03-08T00:50:27;94795.72;;;2.08;38.38
77366;BME280;66430;50.182;11.704;2024-03-08T00:52:52;94790.52;;;1.57;39.04
77366;BME280;66430;50.182;11.704;2024-03-08T00:55:18;94785.75;;;1.84;38.75
77366;BME280;66430;50.182;11.704;2024-03-08T00:57:44;94786.28;;;2.33;37.99
77366;BME280;66430;50.182;11.704;2024-03-08T01:00:10;94780.41;;;2.30;37.85
77366;BME280;66430;50.182;11.704;2024-03-08T01:02:36;94781.72;;;2.42;37.66
77366;BME280;66430;50.182;11.704;2024-03-08T01:05:01;94781.74;;;2.31;37.46
77366;BME280;66430;50.182;11.704;2024-03-08T01:07:26;94781.25;;;2.59;37.36
77366;BME280;66430;50.182;11.704;2024-03-08T01:09:51;94780.27;;;2.46;37.33
77366;BME280;66430;50.182;11.704;2024-03-08T01:12:17;94778.69;;;2.23;37.36
77366;BME280;66430;50.182;11.704;2024-03-08T01:14:42;94772.70;;;1.63;37.97
77366;BME280;66430;50.182;11.704;2024-03-08T01:17:07;94772.96;;;1.64;38.63
77366;BME280;66430;50.182;11.704;2024-03-08T01:19:33;94770.32;;;2.09;38.31
77366;BME280;66430;50.182;11.704;2024-03-08T01:21:58;94770.97;;;1.96;38.21
77366;BME280;66430;50.182;11.704;2024-03-08T01:24:24;94769.36;;;2.33;37.74
77366;BME280;66430;50.182;11.704;2024-03-08T01:26:49;94763.00;;;2.36;37.65
77366;BME280;66430;50.182;11.704;2024-03-08T01:29:14;94757.15;;;2.08;37.56
77366;BME280;66430;50.182;11.704;2024-03-08T01:31:40;94757.77;;;1.74;38.60
77366;BME280;66430;50.182;11.704;2024-03-08T01:34:05;94755.61;;;1.47;38.95
77366;BME280;66430;50.182;11.704;2024-03-08T01:36:31;94753.24;;;1.19;39.59
77366;BME280;66430;50.182;11.704;2024-03-08T01:38:56;94750.26;;;1.40;39.34
77366;BME280;66430;50.182;11.704;2024-03-08T01:41:23;94746.08;;;1.15;39.57
77366;BME280;66430;50.182;11.704;2024-03-08T01:43:49;94744.17;;;1.16;39.63
77366;BME280;66430;50.182;11.704;2024-03-08T01:46:17;94745.18;;;1.30;39.38
77366;BME280;66430;50.182;11.704;2024-03-08T01:48:38;94740.49;;;0.79;40.76
77366;BME280;66430;50.182;11.704;2024-03-08T01:51:04;94736.09;;;0.33;41.98
77366;BME280;66430;50.182;11.704;2024-03-08T01:53:29;94732.84;;;0.88;41.10
77366;BME280;66430;50.182;11.704;2024-03-08T01:55:56;94730.91;;;0.45;41.80
77366;BME280;66430;50.182;11.704;2024-03-08T01:58:20;94727.96;;;0.54;41.68
77366;BME280;66430;50.182;11.704;2024-03-08T02:00:46;94725.60;;;0.14;42.38
77366;BME280;66430;50.182;11.704;2024-03-08T02:03:10;94719.46;;;0.32;42.99
77366;BME280;66430;50.182;11.704;2024-03-08T02:05:36;94723.32;;;0.12;43.06
77366;BME280;66430;50.182;11.704;2024-03-08T02:08:02;94725.64;;;0.02;43.64
77366;BME280;66430;50.182;11.704;2024-03-08T02:10:27;94717.93;;;-0.16;43.54
77366;BME280;66430;50.182;11.704;2024-03-08T02:12:53;94724.29;;;0.23;42.75
77366;BME280;66430;50.182;11.704;2024-03-08T02:15:20;94721.79;;;0.25;42.68
77366;BME280;66430;50.182;11.704;2024-03-08T02:17:44;94719.64;;;0.19;42.76
77366;BME280;66430;50.182;11.704;2024-03-08T02:20:10;94714.04;;;0.22;42.03
77366;BME280;66430;50.182;11.704;2024-03-08T02:22:35;94707.95;;;0.30;42.16
77366;BME280;66430;50.182;11.704;2024-03-08T02:25:01;94700.02;;;0.34;41.80
77366;BME280;66430;50.182;11.704;2024-03-08T02:27:27;94697.95;;;0.62;41.43
77366;BME280;66430;50.182;11.704;2024-03-08T02:29:52;94690.43;;;1.18;40.51
77366;BME280;66430;50.182;11.704;2024-03-08T02:32:17;94685.79;;;1.47;39.87
77366;BME280;66430;50.182;11.704;2024-03-08T02:34:42;94687.50;;;1.40;39.85
77366;BME280;66430;50.182;11.704;2024-03-08T02:37:08;94684.51;;;0.91;40.70
77366;BME280;66430;50.182;11.704;2024-03-08T02:39:33;94681.86;;;0.51;40.89
77366;BME280;66430;50.182;11.704;2024-03-08T02:41:58;94680.93;;;0.47;41.09
77366;BME280;66430;50.182;11.704;2024-03-08T02:44:23;94678.60;;;0.62;41.28
77366;BME280;66430;50.182;11.704;2024-03-08T02:46:49;94678.86;;;0.59;41.47
77366;BME280;66430;50.182;11.704;2024-03-08T02:49:14;94675.26;;;0.34;41.73
77366;BME280;66430;50.182;11.704;2024-03-08T02:51:39;94673.66;;;0.40;41.72
77366;BME280;66430;50.182;11.704;2024-03-08T02:54:05;94673.43;;;0.45;41.55
77366;BME280;66430;50.182;11.704;2024-03-08T02:56:31;94674.26;;;-0.02;42.44
77366;BME280;66430;50.182;11.704;2024-03-08T02:58:56;94674.57;;;-0.25;42.99
77366;BME280;66430;50.182;11.704;2024-03-08T03:01:28;94669.75;;;-0.42;43.70
77366;BME280;66430;50.182;11.704;2024-03-08T03:03:47;94670.00;;;-0.22;43.51
77366;BME280;66430;50.182;11.704;2024-03-08T03:06:14;94668.86;;;-0.57;43.84
77366;BME280;66430;50.182;11.704;2024-03-08T03:08:38;94665.35;;;-0.31;43.19
77366;BME280;66430;50.182;11.704;2024-03-08T03:11:04;94663.09;;;0.78;41.64
77366;BME280;66430;50.182;11.704;2024-03-08T03:13:29;94656.79;;;1.35;40.64
77366;BME280;66430;50.182;11.704;2024-03-08T03:15:54;94658.33;;;1.25;40.11
77366;BME280;66430;50.182;11.704;2024-03-08T03:18:20;94652.20;;;1.45;39.75
77366;BME280;66430;50.182;11.704;2024-03-08T03:20:44;94650.88;;;2.00;39.22
77366;BME280;66430;50.182;11.704;2024-03-08T03:23:10;94651.37;;;1.59;38.96
77366;BME280;66430;50.182;11.704;2024-03-08T03:25:35;94651.09;;;1.81;38.75
77366;BME280;66430;50.182;11.704;2024-03-08T03:28:01;94651.90;;;1.92;38.29
77366;BME280;66430;50.182;11.704;2024-03-08T03:30:27;94654.68;;;2.06;38.29
77366;BME280;66430;50.182;11.704;2024-03-08T03:32:53;94654.51;;;2.07;38.12
77366;BME280;66430;50.182;11.704;2024-03-08T03:35:18;94654.03;;;2.12;37.93
77366;BME280;66430;50.182;11.704;2024-03-08T03:37:44;94658.35;;;2.05;37.74
77366;BME280;66430;50.182;11.704;2024-03-08T03:40:10;94663.68;;;2.09;37.73
77366;BME280;66430;50.182;11.704;2024-03-08T03:42:35;94661.83;;;2.32;37.65
77366;BME280;66430;50.182;11.704;2024-03-08T03:45:02;94659.50;;;2.26;37.54
77366;BME280;66430;50.182;11.704;2024-03-08T03:47:26;94658.74;;;1.98;37.89
77366;BME280;66430;50.182;11.704;2024-03-08T03:49:51;94658.01;;;1.14;39.08
77366;BME280;66430;50.182;11.704;2024-03-08T03:52:17;94658.90;;;0.90;39.31
77366;BME280;66430;50.182;11.704;2024-03-08T03:54:42;94657.05;;;1.52;39.44
77366;BME280;66430;50.182;11.704;2024-03-08T03:57:09;94655.07;;;0.72;40.30
77366;BME280;66430;50.182;11.704;2024-03-08T03:59:34;94658.95;;;0.68;40.56
77366;BME280;66430;50.182;11.704;2024-03-08T04:01:59;94653.27;;;0.93;40.16
77366;BME280;66430;50.182;11.704;2024-03-08T04:04:24;94652.20;;;1.06;39.71
77366;BME280;66430;50.182;11.704;2024-03-08T04:06:50;94650.74;;;1.48;39.03
77366;BME280;66430;50.182;11.704;2024-03-08T04:09:15;94644.39;;;1.60;38.90
77366;BME280;66430;50.182;11.704;2024-03-08T04:11:40;94641.47;;;1.78;38.47
77366;BME280;66430;50.182;11.704;2024-03-08T04:14:06;94638.52;;;1.68;38.56
77366;BME280;66430;50.182;11.704;2024-03-08T04:16:32;94641.07;;;1.86;38.19
77366;BME280;66430;50.182;11.704;2024-03-08T04:18:57;94638.53;;;1.73;38.51
77366;BME280;66430;50.182;11.704;2024-03-08T04:21:22;94636.30;;;1.70;38.76
77366;BME280;66430;50.182;11.704;2024-03-08T04:23:48;94639.81;;;1.66;39.17
77366;BME280;66430;50.182;11.704;2024-03-08T04:26:13;94638.51;;;1.50;38.95
77366;BME280;66430;50.182;11.704;2024-03-08T04:28:39;94642.14;;;1.79;38.70
77366;BME280;66430;50.182;11.704;2024-03-08T04:31:03;94639.43;;;1.83;39.10
77366;BME280;66430;50.182;11.704;2024-03-08T04:33:29;94639.45;;;1.34;39.29
77366;BME280;66430;50.182;11.704;2024-03-08T04:35:54;94636.67;;;1.36;39.79
77366;BME280;66430;50.182;11.704;2024-03-08T04:38:19;94635.00;;;1.47;39.41
77366;BME280;66430;50.182;11.704;2024-03-08T04:40:44;94631.82;;;1.61;39.21
77366;BME280;66430;50.182;11.704;2024-03-08T04:43:10;94626.34;;;1.58;39.03
77366;BME280;66430;50.182;11.704;2024-03-08T04:45:36;94630.27;;;1.93;38.54
77366;BME280;66430;50.182;11.704;2024-03-08T04:48:01;94626.80;;;1.98;38.19
77366;BME280;66430;50.182;11.704;2024-03-08T04:50:27;94628.52;;;1.87;38.48
77366;BME280;66430;50.182;11.704;2024-03-08T04:52:52;94627.70;;;1.76;38.53
77366;BME280;66430;50.182;11.704;2024-03-08T04:55:18;94625.32;;;1.95;38.28
77366;BME280;66430;50.182;11.704;2024-03-08T04:57:43;94623.62;;;2.01;38.22
77366;BME280;66430;50.182;11.704;2024-03-08T05:00:09;94619.95;;;1.36;39.47
77366;BME280;66430;50.182;11.704;2024-03-08T05:02:34;94620.93;;;1.26;39.65
77366;BME280;66430;50.182;11.704;2024-03-08T05:04:59;94620.48;;;0.64;40.61
77366;BME280;66430;50.182;11.704;2024-03-08T05:07:25;94618.50;;;0.06;41.87
77366;BME280;66430;50.182;11.704;2024-03-08T05:09:50;94617.26;;;0.36;42.62
77366;BME280;66430;50.182;11.704;2024-03-08T05:12:15;94620.93;;;-0.36;44.59
77366;BME280;66430;50.182;11.704;2024-03-08T05:14:41;94621.72;;;0.06;43.95
77366;BME280;66430;50.182;11.704;2024-03-08T05:17:06;94618.94;;;-0.27;44.19
77366;BME280;66430;50.182;11.704;2024-03-08T05:19:31;94620.72;;;-0.47;43.99
77366;BME280;66430;50.182;11.704;2024-03-08T05:21:57;94617.22;;;0.08;43.48
77366;BME280;66430;50.182;11.704;2024-03-08T05:24:23;94614.67;;;0.36;42.87
77366;BME280;66430;50.182;11.704;2024-03-08T05:26:49;94620.63;;;0.32;42.86
77366;BME280;66430;50.182;11.704;2024-03-08T05:29:15;94619.97;;;0.21;42.79
77366;BME280;66430;50.182;11.704;2024-03-08T05:31:46;94616.84;;;0.19;42.37
77366;BME280;66430;50.182;11.704;2024-03-08T05:34:05;94605.54;;;0.69;41.77
77366;BME280;66430;50.182;11.704;2024-03-08T05:36:31;94609.23;;;0.94;41.55
77366;BME280;66430;50.182;11.704;2024-03-08T05:39:03;94606.17;;;0.76;42.24
77366;BME280;66430;50.182;11.704;2024-03-08T05:41:22;94609.85;;;0.48;42.51
77366;BME280;66430;50.182;11.704;2024-03-08T05:43:48;94607.07;;;0.50;42.47
77366;BME280;66430;50.182;11.704;2024-03-08T05:46:15;94600.85;;;0.66;42.77
77366;BME280;66430;50.182;11.704;2024-03-08T05:48:39;94605.72;;;0.79;42.86
77366;BME280;66430;50.182;11.704;2024-03-08T05:51:05;94607.81;;;0.14;44.28
77366;BME280;66430;50.182;11.704;2024-03-08T05:53:30;94603.97;;;-0.26;44.83
77366;BME280;66430;50.182;11.704;2024-03-08T05:55:55;94611.74;;;-0.47;46.17
77366;BME280;66430;50.182;11.704;2024-03-08T05:58:21;94603.36;;;-0.18;45.92
77366;BME280;66430;50.182;11.704;2024-03-08T06:00:46;94604.73;;;-0.13;45.66
77366;BME280;66430;50.182;11.704;2024-03-08T06:03:11;94603.18;;;-0.30;45.88
77366;BME280;66430;50.182;11.704;2024-03-08T06:05:36;94604.65;;;-0.17;46.00
77366;BME280;66430;50.182;11.704;2024-03-08T06:08:02;94605.71;;;-0.13;45.73
77366;BME280;66430;50.182;11.704;2024-03-08T06:10:28;94602.86;;;-0.04;45.88
77366;BME280;66430;50.182;11.704;2024-03-08T06:12:53;94599.46;;;0.38;45.38
77366;BME280;66430;50.182;11.704;2024-03-08T06:15:19;94600.13;;;0.06;45.36
77366;BME280;66430;50.182;11.704;2024-03-08T06:17:44;94594.77;;;-0.35;45.71
77366;BME280;66430;50.182;11.704;2024-03-08T06:20:10;94595.21;;;-0.05;45.61
77366;BME280;66430;50.182;11.704;2024-03-08T06:22:35;94588.57;;;-0.20;46.40
77366;BME280;66430;50.182;11.704;2024-03-08T06:25:00;94593.16;;;-0.18;46.62
77366;BME280;66430;50.182;11.704;2024-03-08T06:27:25;94595.64;;;-0.05;46.27
77366;BME280;66430;50.182;11.704;2024-03-08T06:29:50;94591.21;;;0.24;46.13
77366;BME280;66430;50.182;11.704;2024-03-08T06:32:16;94590.27;;;0.20;45.91
77366;BME280;66430;50.182;11.704;2024-03-08T06:34:41;94586.73;;;0.30;45.18
77366;BME280;66430;50.182;11.704;2024-03-08T06:37:07;94587.42;;;0.25;45.83
77366;BME280;66430;50.182;11.704;2024-03-08T06:39:32;94586.20;;;0.25;45.95
77366;BME280;66430;50.182;11.704;2024-03-08T06:41:58;94588.62;;;0.26;45.95
77366;BME280;66430;50.182;11.704;2024-03-08T06:44:24;94586.91;;;0.95;44.85
77366;BME280;66430;50.182;11.704;2024-03-08T06:46:49;94585.66;;;0.64;44.90
77366;BME280;66430;50.182;11.704;2024-03-08T06:49:15;94577.43;;;1.20;44.06
77366;BME280;66430;50.182;11.704;2024-03-08T06:51:41;94579.99;;;1.13;44.16
77366;BME280;66430;50.182;11.704;2024-03-08T06:54:06;94579.04;;;0.88;44.38
77366;BME280;66430;50.182;11.704;2024-03-08T06:56:31;94574.78;;;0.57;44.45
77366;BME280;66430;50.182;11.704;2024-03-08T06:58:57;94567.38;;;0.89;44.62
77366;BME280;66430;50.182;11.704;2024-03-08T07:01:22;94564.56;;;0.70;44.38
77366;BME280;66430;50.182;11.704;2024-03-08T07:03:47;94559.58;;;1.18;44.54
77366;BME280;66430;50.182;11.704;2024-03-08T07:06:12;94560.93;;;1.04;44.37
77366;BME280;66430;50.182;11.704;2024-03-08T07:08:37;94558.08;;;1.08;44.53
77366;BME280;66430;50.182;11.704;2024-03-08T07:11:03;94562.45;;;0.88;44.39
77366;BME280;66430;50.182;11.704;2024-03-08T07:13:28;94563.17;;;1.11;44.68
77366;BME280;66430;50.182;11.704;2024-03-08T07:15:54;94563.87;;;1.07;44.73
77366;BME280;66430;50.182;11.704;2024-03-08T07:18:20;94556.35;;;0.38;45.62
77366;BME280;66430;50.182;11.704;2024-03-08T07:20:46;94563.08;;;1.42;44.68
77366;BME280;66430;50.182;11.704;2024-03-08T07:23:11;94559.41;;;1.46;43.97
77366;BME280;66430;50.182;11.704;2024-03-08T07:25:37;94562.24;;;2.23;42.86
77366;BME280;66430;50.182;11.704;2024-03-08T07:28:02;94557.05;;;2.50;42.06
77366;BME280;66430;50.182;11.704;2024-03-08T07:30:28;94548.53;;;2.28;41.81
77366;BME280;66430;50.182;11.704;2024-03-08T07:32:53;94560.70;;;2.71;41.29
77366;BME280;66430;50.182;11.704;2024-03-08T07:35:18;94556.39;;;2.61;40.78
77366;BME280;66430;50.182;11.704;2024-03-08T07:37:44;94547.24;;;2.81;40.37
77366;BME280;66430;50.182;11.704;2024-03-08T07:40:10;94543.76;;;3.02;40.09
77366;BME280;66430;50.182;11.704;2024-03-08T07:42:34;94540.75;;;3.11;39.88
77366;BME280;66430;50.182;11.704;2024-03-08T07:45:02;94542.54;;;3.05;40.04
77366;BME280;66430;50.182;11.704;2024-03-08T07:47:25;94544.42;;;3.27;40.01
77366;BME280;66430;50.182;11.704;2024-03-08T07:49:51;94542.98;;;3.41;39.60
77366;BME280;66430;50.182;11.704;2024-03-08T07:52:17;94540.16;;;3.26;39.13
77366;BME280;66430;50.182;11.704;2024-03-08T07:54:43;94538.94;;;3.42;38.89
77366;BME280;66430;50.182;11.704;2024-03-08T07:57:09;94544.85;;;3.67;38.62
77366;BME280;66430;50.182;11.704;2024-03-08T07:59:33;94545.18;;;3.90;38.34
77366;BME280;66430;50.182;11.704;2024-03-08T08:02:01;94544.05;;;4.09;38.12
77366;BME280;66430;50.182;11.704;2024-03-08T08:04:26;94546.17;;;4.14;37.87
77366;BME280;66430;50.182;11.704;2024-03-08T08:06:49;94542.34;;;4.33;37.57
77366;BME280;66430;50.182;11.704;2024-03-08T08:09:15;94542.62;;;4.24;37.62
77366;BME280;66430;50.182;11.704;2024-03-08T08:11:40;94535.39;;;4.84;37.38
77366;BME280;66430;50.182;11.704;2024-03-08T08:14:06;94531.19;;;3.99;37.75
77366;BME280;66430;50.182;11.704;2024-03-08T08:16:32;94528.74;;;4.17;37.61
77366;BME280;66430;50.182;11.704;2024-03-08T08:18:57;94521.42;;;4.61;37.40
77366;BME280;66430;50.182;11.704;2024-03-08T08:21:22;94519.50;;;4.21;37.52
77366;BME280;66430;50.182;11.704;2024-03-08T08:23:48;94509.79;;;3.74;38.23
77366;BME280;66430;50.182;11.704;2024-03-08T08:26:13;94519.13;;;4.26;37.68
77366;BME280;66430;50.182;11.704;2024-03-08T08:28:40;94518.08;;;4.28;37.79
77366;BME280;66430;50.182;11.704;2024-03-08T08:31:05;94517.30;;;4.34;37.90
77366;BME280;66430;50.182;11.704;2024-03-08T08:33:30;94515.37;;;4.42;37.73
77366;BME280;66430;50.182;11.704;2024-03-08T08:35:56;94512.55;;;4.58;37.25
77366;BME280;66430;50.182;11.704;2024-03-08T08:38:21;94508.14;;;4.28;37.18
77366;BME280;66430;50.182;11.704;2024-03-08T08:40:47;94506.42;;;4.44;37.34
77366;BME280;66430;50.182;11.704;2024-03-08T08:43:15;94504.89;;;4.26;37.27
77366;BME280;66430;50.182;11.704;2024-03-08T08:45:38;94506.44;;;4.61;36.97
77366;BME280;66430;50.182;11.704;2024-03-08T08:48:04;94505.54;;;4.53;36.50
77366;BME280;66430;50.182;11.704;2024-03-08T08:50:28;94508.23;;;4.60;36.71
77366;BME280;66430;50.182;11.704;2024-03-08T08:52:54;94502.66;;;4.08;37.23
77366;BME280;66430;50.182;11.704;2024-03-08T08:55:19;94495.44;;;4.15;36.93
77366;BME280;66430;50.182;11.704;2024-03-08T08:57:45;94499.86;;;4.85;36.76
77366;BME280;66430;50.182;11.704;2024-03-08T09:00:16;94494.10;;;4.80;36.66
77366;BME280;66430;50.182;11.704;2024-03-08T09:02:35;94488.05;;;4.19;36.75
77366;BME280;66430;50.182;11.704;2024-03-08T09:05:02;94494.87;;;4.69;36.41
77366;BME280;66430;50.182;11.704;2024-03-08T09:07:27;94489.93;;;4.43;36.53
77366;BME280;66430;50.182;11.704;2024-03-08T09:09:57;94491.19;;;4.63;36.79
77366;BME280;66430;50.182;11.704;2024-03-08T09:12:19;94494.88;;;4.97;36.38
77366;BME280;66430;50.182;11.704;2024-03-08T09:14:43;94492.64;;;4.85;36.29
77366;BME280;66430;50.182;11.704;2024-03-08T09:17:07;94499.92;;;4.88;36.11
77366;BME280;66430;50.182;11.704;2024-03-08T09:19:33;94503.70;;;4.98;35.96
77366;BME280;66430;50.182;11.704;2024-03-08T09:21:59;94501.55;;;4.66;35.96
77366;BME280;66430;50.182;11.704;2024-03-08T09:24:29;94504.21;;;5.42;35.75
77366;BME280;66430;50.182;11.704;2024-03-08T09:26:49;94508.66;;;5.04;35.91
77366;BME280;66430;50.182;11.704;2024-03-08T09:29:14;94498.57;;;4.92;36.56
77366;BME280;66430;50.182;11.704;2024-03-08T09:31:39;94489.46;;;4.39;37.53
77366;BME280;66430;50.182;11.704;2024-03-08T09:34:05;94492.66;;;4.62;38.24
77366;BME280;66430;50.182;11.704;2024-03-08T09:36:31;94480.83;;;4.42;38.50
77366;BME280;66430;50.182;11.704;2024-03-08T09:38:57;94486.34;;;4.47;38.82
77366;BME280;66430;50.182;11.704;2024-03-08T09:41:22;94483.15;;;4.49;39.05
77366;BME280;66430;50.182;11.704;2024-03-08T09:43:48;94483.75;;;4.74;38.03
77366;BME280;66430;50.182;11.704;2024-03-08T09:46:14;94484.06;;;4.15;38.73
77366;BME280;66430;50.182;11.704;2024-03-08T09:48:39;94484.08;;;4.39;38.01
77366;BME280;66430;50.182;11.704;2024-03-08T09:51:05;94486.87;;;4.23;37.99
77366;BME280;66430;50.182;11.704;2024-03-08T09:53:30;94484.83;;;4.75;37.40
77366;BME280;66430;50.182;11.704;2024-03-08T09:55:57;94480.03;;;4.58;37.17
77366;BME280;66430;50.182;11.704;2024-03-08T09:58:21;94476.71;;;5.15;36.87
77366;BME280;66430;50.182;11.704;2024-03-08T10:00:47;94473.42;;;5.20;36.81
77366;BME280;66430;50.182;11.704;2024-03-08T10:03:13;94470.65;;;4.96;36.54
77366;BME280;66430;50.182;11.704;2024-03-08T10:05:38;94469.08;;;4.96;36.63
77366;BME280;66430;50.182;11.704;2024-03-08T10:08:05;94467.98;;;4.83;36.75
77366;BME280;66430;50.182;11.704;2024-03-08T10:10:29;94469.82;;;5.40;36.22
77366;BME280;66430;50.182;11.704;2024-03-08T10:12:55;94470.66;;;5.72;35.72
77366;BME280;66430;50.182;11.704;2024-03-08T10:15:20;94463.71;;;5.11;35.68
77366;BME280;66430;50.182;11.704;2024-03-08T10:17:46;94461.21;;;5.66;35.60
77366;BME280;66430;50.182;11.704;2024-03-08T10:20:15;94454.16;;;5.97;35.43
77366;BME280;66430;50.182;11.704;2024-03-08T10:22:36;94450.67;;;5.98;36.01
77366;BME280;66430;50.182;11.704;2024-03-08T10:25:03;94445.45;;;5.47;36.49
77366;BME280;66430;50.182;11.704;2024-03-08T10:27:28;94451.36;;;4.92;38.29
77366;BME280;66430;50.182;11.704;2024-03-08T10:29:53;94448.56;;;5.07;37.89
77366;BME280;66430;50.182;11.704;2024-03-08T10:32:19;94450.78;;;4.73;38.26
77366;BME280;66430;50.182;11.704;2024-03-08T10:34:43;94450.92;;;5.00;37.58
77366;BME280;66430;50.182;11.704;2024-03-08T10:37:14;94447.96;;;4.88;38.07
77366;BME280;66430;50.182;11.704;2024-03-08T10:39:37;94444.73;;;4.73;38.42
77366;BME280;66430;50.182;11.704;2024-03-08T10:42:03;94446.82;;;4.69;38.59
77366;BME280;66430;50.182;11.704;2024-03-08T10:44:40;94446.74;;;5.29;37.63
77366;BME280;66430;50.182;11.704;2024-03-08T10:47:00;94443.53;;;5.18;38.01
77366;BME280;66430;50.182;11.704;2024-03-08T10:49:17;94442.62;;;3.59;38.94
77366;BME280;66430;50.182;11.704;2024-03-08T10:51:43;94447.01;;;4.81;38.37
77366;BME280;66430;50.182;11.704;2024-03-08T10:54:09;94446.00;;;5.17;38.04
77366;BME280;66430;50.182;11.704;2024-03-08T10:56:32;94452.04;;;5.92;37.40
77366;BME280;66430;50.182;11.704;2024-03-08T10:58:58;94446.95;;;6.54;35.70
77366;BME280;66430;50.182;11.704;2024-03-08T11:01:23;94438.25;;;6.21;35.12
77366;BME280;66430;50.182;11.704;2024-03-08T11:03:49;94439.49;;;6.15;35.54
77366;BME280;66430;50.182;11.704;2024-03-08T11:06:17;94443.53;;;5.83;34.65
77366;BME280;66430;50.182;11.704;2024-03-08T11:08:41;94441.08;;;5.80;37.09
77366;BME280;66430;50.182;11.704;2024-03-08T11:11:05;94435.01;;;6.36;35.92
77366;BME280;66430;50.182;11.704;2024-03-08T11:13:33;94435.92;;;6.45;35.56
77366;BME280;66430;50.182;11.704;2024-03-08T11:15:55;94425.86;;;7.03;34.60
77366;BME280;66430;50.182;11.704;2024-03-08T11:18:20;94418.40;;;7.04;34.99
77366;BME280;66430;50.182;11.704;2024-03-08T11:20:47;94418.91;;;6.62;34.00
77366;BME280;66430;50.182;11.704;2024-03-08T11:23:12;94416.31;;;6.55;34.56
77366;BME280;66430;50.182;11.704;2024-03-08T11:25:38;94419.66;;;6.32;35.41
77366;BME280;66430;50.182;11.704;2024-03-08T11:28:12;94421.24;;;6.76;34.47
77366;BME280;66430;50.182;11.704;2024-03-08T11:30:28;94416.10;;;6.85;34.71
77366;BME280;66430;50.182;11.704;2024-03-08T11:32:53;94409.65;;;7.35;33.86
77366;BME280;66430;50.182;11.704;2024-03-08T11:35:20;94402.91;;;6.71;34.50
77366;BME280;66430;50.182;11.704;2024-03-08T11:37:45;94402.56;;;6.67;34.77
77366;BME280;66430;50.182;11.704;2024-03-08T11:40:13;94401.17;;;7.17;34.06
77366;BME280;66430;50.182;11.704;2024-03-08T11:42:35;94398.34;;;7.17;34.84
77366;BME280;66430;50.182;11.704;2024-03-08T11:45:08;94391.97;;;7.06;33.79
77366;BME280;66430;50.182;11.704;2024-03-08T11:47:26;94388.37;;;7.60;33.27
77366;BME280;66430;50.182;11.704;2024-03-08T11:49:51;94388.83;;;7.99;33.23
77366;BME280;66430;50.182;11.704;2024-03-08T11:52:18;94376.91;;;6.96;34.23
77366;BME280;66430;50.182;11.704;2024-03-08T11:54:47;94378.16;;;6.95;34.77
77366;BME280;66430;50.182;11.704;2024-03-08T11:57:09;94383.12;;;7.59;34.12
77366;BME280;66430;50.182;11.704;2024-03-08T11:59:32;94378.73;;;7.45;33.72
77366;BME280;66430;50.182;11.704;2024-03-08T12:02:04;94378.58;;;7.82;33.81
77366;BME280;66430;50.182;11.704;2024-03-08T12:04:23;94375.87;;;7.86;32.88
77366;BME280;66430;50.182;11.704;2024-03-08T12:06:49;94368.21;;;8.43;32.39
77366;BME280;66430;50.182;11.704;2024-03-08T12:09:16;94366.09;;;8.30;33.12
77366;BME280;66430;50.182;11.704;2024-03-08T12:11:41;94357.15;;;8.19;33.72
77366;BME280;66430;50.182;11.704;2024-03-08T12:14:07;94352.19;;;8.85;31.90
77366;BME280;66430;50.182;11.704;2024-03-08T12:16:32;94344.59;;;8.98;32.16
77366;BME280;66430;50.182;11.704;2024-03-08T12:18:57;94342.65;;;9.11;31.32
77366;BME280;66430;50.182;11.704;2024-03-08T12:21:22;94336.65;;;8.72;31.22
77366;BME280;66430;50.182;11.704;2024-03-08T12:23:48;94333.78;;;8.69;31.66
77366;BME280;66430;50.182;11.704;2024-03-08T12:26:15;94323.08;;;8.46;32.34
77366;BME280;66430;50.182;11.704;2024-03-08T12:28:39;94326.91;;;9.11;31.17
77366;BME280;66430;50.182;11.704;2024-03-08T12:31:07;94326.90;;;8.47;32.47
77366;BME280;66430;50.182;11.704;2024-03-08T12:33:30;94330.17;;;7.86;33.11
77366;BME280;66430;50.182;11.704;2024-03-08T12:35:55;94321.72;;;7.70;34.19
77366;BME280;66430;50.182;11.704;2024-03-08T12:38:21;94315.26;;;7.84;35.58
77366;BME280;66430;50.182;11.704;2024-03-08T12:40:47;94313.50;;;7.66;33.98
77366;BME280;66430;50.182;11.704;2024-03-08T12:43:11;94312.69;;;8.33;32.70
77366;BME280;66430;50.182;11.704;2024-03-08T12:45:37;94304.30;;;8.40;32.61
77366;BME280;66430;50.182;11.704;2024-03-08T12:48:03;94310.94;;;8.01;32.60
77366;BME280;66430;50.182;11.704;2024-03-08T12:50:28;94313.01;;;8.31;32.09